createdAt,value
2018-06-14T00:01:36.424Z,13.50
2018-06-14T00:04:04.455Z,13.40
2018-06-14T00:06:32.512Z,13.40
2018-06-14T00:09:00.561Z,13.30
2018-06-14T00:11:28.570Z,13.40
2018-06-14T00:13:56.637Z,13.40
2018-06-14T00:16:24.654Z,13.40
2018-06-14T00:18:52.018Z,13.30
2018-06-14T00:21:20.079Z,13.40
2018-06-14T00:23:48.126Z,13.30
2018-06-14T00:31:11.858Z,13.40
2018-06-14T00:33:39.895Z,13.40
2018-06-14T00:36:07.928Z,13.40
2018-06-14T00:38:35.962Z,13.40
2018-06-14T00:43:31.826Z,13.40
2018-06-14T00:45:59.996Z,13.40
2018-06-14T00:48:28.043Z,13.40
2018-06-14T00:50:56.075Z,13.30
2018-06-14T00:53:24.115Z,13.30
2018-06-14T00:55:52.143Z,13.30
2018-06-14T01:00:48.007Z,13.20
2018-06-14T01:03:16.028Z,13.20
2018-06-14T01:05:43.391Z,13.20
2018-06-14T01:08:11.434Z,13.20
2018-06-14T01:10:39.476Z,13.20
2018-06-14T01:13:07.528Z,13.20
2018-06-14T01:15:35.583Z,13.20
2018-06-14T01:18:03.623Z,13.20
2018-06-14T01:20:31.671Z,13.20
2018-06-14T01:22:59.715Z,13.30
2018-06-14T01:25:27.754Z,13.30
2018-06-14T01:27:55.787Z,13.30
2018-06-14T01:30:23.833Z,13.30
2018-06-14T01:32:51.919Z,13.30
2018-06-14T01:35:19.946Z,13.40
2018-06-14T01:37:59.446Z,13.40
2018-06-14T01:40:27.479Z,13.40
2018-06-14T01:42:55.534Z,13.40
2018-06-14T01:47:51.746Z,13.30
2018-06-14T01:50:19.795Z,13.20
2018-06-14T01:52:47.818Z,13.30
2018-06-14T01:55:15.867Z,13.30
2018-06-14T01:57:43.894Z,13.20
2018-06-14T02:00:12.023Z,13.20
2018-06-14T02:02:40.079Z,13.20
2018-06-14T02:05:08.135Z,13.20
2018-06-14T02:07:36.167Z,13.30
2018-06-14T02:10:04.290Z,13.30
2018-06-14T02:12:32.355Z,13.30
2018-06-14T02:15:00.634Z,13.30
2018-06-14T02:17:28.675Z,13.40
2018-06-14T02:19:56.740Z,13.40
2018-06-14T02:22:24.779Z,13.50
2018-06-14T02:24:52.838Z,13.50
2018-06-14T02:27:20.907Z,13.50
2018-06-14T02:29:48.948Z,13.50
2018-06-14T02:32:16.994Z,13.50
2018-06-14T02:34:45.047Z,13.40
2018-06-14T02:37:13.083Z,13.40
2018-06-14T02:42:08.943Z,13.40
2018-06-14T02:44:37.017Z,13.50
2018-06-14T02:47:05.276Z,13.40
2018-06-14T02:49:33.322Z,13.40
2018-06-14T02:52:01.477Z,13.30
2018-06-14T02:54:29.518Z,13.10
2018-06-14T02:56:57.566Z,13.10
2018-06-14T02:59:25.602Z,13.00
2018-06-14T03:01:53.665Z,13.10
2018-06-14T03:04:21.690Z,13.10
2018-06-14T03:06:49.740Z,13.10
2018-06-14T03:09:17.779Z,13.20
2018-06-14T03:11:45.820Z,13.20
2018-06-14T03:14:14.041Z,13.10
2018-06-14T03:16:42.307Z,13.20
2018-06-14T03:19:10.379Z,13.20
2018-06-14T03:21:38.414Z,13.20
2018-06-14T03:24:06.439Z,13.20
2018-06-14T03:26:34.461Z,13.10
2018-06-14T03:29:02.507Z,13.00
2018-06-14T03:31:30.543Z,13.00
2018-06-14T03:33:58.591Z,13.00
2018-06-14T03:36:26.638Z,13.00
2018-06-14T03:38:54.674Z,13.00
2018-06-14T03:41:22.735Z,12.90
2018-06-14T03:43:50.753Z,13.00
2018-06-14T03:46:18.853Z,13.00
2018-06-14T03:48:46.819Z,13.00
2018-06-14T03:51:14.863Z,13.00
2018-06-14T03:53:42.891Z,13.00
2018-06-14T03:56:10.918Z,13.00
2018-06-14T03:58:38.959Z,13.00
2018-06-14T04:01:07.013Z,13.00
2018-06-14T04:03:35.046Z,13.00
2018-06-14T04:08:30.968Z,13.10
2018-06-14T04:10:59.012Z,13.10
2018-06-14T04:15:54.864Z,13.10
2018-06-14T04:18:22.894Z,13.10
2018-06-14T04:20:50.927Z,13.10
2018-06-14T04:23:18.976Z,13.10
2018-06-14T04:28:14.810Z,13.20
2018-06-14T04:30:42.831Z,13.30
2018-06-14T04:33:10.867Z,13.40
2018-06-14T04:35:38.894Z,13.50
2018-06-14T04:38:06.975Z,13.60
2018-06-14T04:40:35.003Z,13.70
2018-06-14T04:43:03.490Z,13.70
2018-06-14T04:45:31.510Z,13.70
2018-06-14T04:50:28.259Z,13.70
2018-06-14T04:52:56.294Z,13.70
2018-06-14T04:55:24.342Z,13.70
2018-06-14T04:57:51.715Z,13.80
2018-06-14T05:00:19.106Z,13.80
2018-06-14T05:05:14.319Z,13.90
2018-06-14T05:07:42.356Z,14.00
2018-06-14T05:10:10.391Z,14.00
2018-06-14T05:12:38.435Z,14.10
2018-06-14T05:15:06.474Z,14.10
2018-06-14T05:17:34.483Z,14.20
2018-06-14T05:20:02.544Z,14.20
2018-06-14T05:22:30.590Z,14.20
2018-06-14T05:27:26.438Z,14.30
2018-06-14T05:29:54.478Z,14.40
2018-06-14T05:32:22.506Z,14.70
2018-06-14T05:34:50.527Z,14.80
2018-06-14T05:37:18.571Z,14.70
2018-06-14T05:39:46.639Z,14.80
2018-06-14T05:42:14.742Z,14.70
2018-06-14T05:44:42.705Z,14.70
2018-06-14T05:47:10.738Z,14.80
2018-06-14T05:52:06.573Z,15.10
2018-06-14T05:54:34.595Z,15.20
2018-06-14T05:57:02.606Z,15.30
2018-06-14T05:59:30.670Z,15.30
2018-06-14T06:01:58.699Z,15.40
2018-06-14T06:04:26.738Z,15.40
2018-06-14T06:06:54.787Z,15.40
2018-06-14T06:09:22.890Z,15.40
2018-06-14T06:11:50.982Z,15.20
2018-06-14T06:14:18.967Z,15.30
2018-06-14T06:16:46.982Z,15.30
2018-06-14T06:19:15.035Z,15.30
2018-06-14T06:21:43.810Z,15.30
2018-06-14T06:24:11.862Z,15.30
2018-06-14T06:26:39.884Z,15.40
2018-06-14T06:29:07.930Z,15.50
2018-06-14T06:31:35.319Z,15.50
2018-06-14T06:34:03.361Z,15.70
2018-06-14T06:36:31.391Z,15.80
2018-06-14T06:38:59.436Z,16.00
2018-06-14T06:41:27.478Z,16.10
2018-06-14T06:43:55.503Z,16.00
2018-06-14T06:46:23.522Z,16.10
2018-06-14T06:48:51.570Z,16.30
2018-06-14T06:51:18.951Z,16.30
2018-06-14T06:53:47.002Z,16.30
2018-06-14T06:56:15.032Z,16.50
2018-06-14T06:58:43.099Z,16.40
2018-06-14T07:01:11.179Z,16.30
2018-06-14T07:03:38.541Z,16.40
2018-06-14T07:06:06.686Z,16.10
2018-06-14T07:08:34.642Z,16.10
2018-06-14T07:13:30.124Z,16.20
2018-06-14T07:15:57.486Z,16.00
2018-06-14T07:18:25.510Z,16.00
2018-06-14T07:20:53.742Z,16.20
2018-06-14T07:23:21.799Z,16.30
2018-06-14T07:25:50.427Z,16.40
2018-06-14T07:28:18.487Z,16.50
2018-06-14T07:30:46.538Z,16.60
2018-06-14T07:33:14.572Z,16.60
2018-06-14T07:35:42.587Z,16.70
2018-06-14T07:38:10.623Z,17.00
2018-06-14T07:40:38.654Z,17.20
2018-06-14T07:43:06.069Z,17.30
2018-06-14T07:45:34.061Z,17.30
2018-06-14T07:48:02.123Z,17.60
2018-06-14T07:50:30.143Z,17.40
2018-06-14T07:52:58.183Z,17.30
2018-06-14T07:55:26.311Z,17.20
2018-06-14T07:57:54.414Z,17.30
2018-06-14T08:00:22.435Z,17.40
2018-06-14T08:02:50.455Z,17.50
2018-06-14T08:05:18.478Z,17.60
2018-06-14T08:07:46.505Z,17.70
2018-06-14T08:10:14.523Z,17.90
2018-06-14T08:12:42.571Z,18.10
2018-06-14T08:17:38.392Z,17.70
2018-06-14T08:20:06.451Z,17.90
2018-06-14T08:22:34.495Z,18.00
2018-06-14T08:25:02.512Z,18.00
2018-06-14T08:27:30.571Z,18.00
2018-06-14T08:29:58.613Z,18.10
2018-06-14T08:32:26.634Z,18.10
2018-06-14T08:34:54.653Z,18.00
2018-06-14T08:39:54.490Z,18.30
2018-06-14T08:42:22.775Z,18.30
2018-06-14T08:44:50.829Z,18.50
2018-06-14T08:47:18.858Z,18.60
2018-06-14T08:49:46.899Z,18.60
2018-06-14T08:52:14.927Z,18.70
2018-06-14T08:54:42.971Z,18.80
2018-06-14T08:57:10.998Z,18.80
2018-06-14T08:59:39.030Z,18.80
2018-06-14T09:02:06.415Z,18.80
2018-06-14T09:04:34.438Z,18.80
2018-06-14T09:07:02.670Z,18.80
2018-06-14T09:09:30.726Z,18.80
2018-06-14T09:14:26.619Z,18.90
2018-06-14T09:16:54.666Z,18.90
2018-06-14T09:19:22.038Z,18.90
2018-06-14T09:21:50.066Z,19.10
2018-06-14T09:24:18.098Z,19.00
2018-06-14T09:26:46.123Z,19.00
2018-06-14T09:29:13.505Z,19.00
2018-06-14T09:31:40.985Z,19.10
2018-06-14T09:34:08.355Z,19.20
2018-06-14T09:36:35.729Z,19.30
2018-06-14T09:39:04.234Z,19.50
2018-06-14T09:41:31.615Z,19.50
2018-06-14T09:43:58.990Z,19.80
2018-06-14T09:49:24.465Z,19.60
2018-06-14T09:51:51.832Z,19.80
2018-06-14T09:54:19.214Z,19.80
2018-06-14T09:56:46.811Z,19.90
2018-06-14T09:59:14.169Z,19.90
2018-06-14T10:01:41.558Z,19.90
2018-06-14T10:04:08.941Z,19.90
2018-06-14T10:09:05.689Z,20.10
2018-06-14T10:11:33.058Z,20.00
2018-06-14T10:14:00.482Z,19.90
2018-06-14T10:16:27.858Z,19.90
2018-06-14T10:18:55.645Z,19.90
2018-06-14T10:21:23.005Z,19.90
2018-06-14T10:23:50.390Z,20.00
2018-06-14T10:26:17.758Z,19.90
2018-06-14T10:28:45.117Z,20.20
2018-06-14T10:31:12.498Z,20.40
2018-06-14T10:33:39.869Z,20.50
2018-06-14T10:36:07.259Z,20.40
2018-06-14T10:38:34.626Z,20.40
2018-06-14T10:41:02.010Z,20.50
2018-06-14T10:43:29.464Z,20.80
2018-06-14T10:45:56.816Z,20.90
2018-06-14T10:48:24.310Z,20.70
2018-06-14T10:50:51.774Z,20.60
2018-06-14T10:55:46.285Z,20.30
2018-06-14T10:58:13.645Z,20.50
2018-06-14T11:00:41.020Z,20.50
2018-06-14T11:05:36.991Z,21.60
2018-06-14T11:08:04.383Z,22.00
2018-06-14T11:10:31.734Z,21.90
2018-06-14T11:12:59.128Z,21.80
2018-06-14T11:15:26.874Z,22.00
2018-06-14T11:17:54.258Z,22.30
2018-06-14T11:20:21.648Z,21.90
2018-06-14T11:22:48.985Z,21.30
2018-06-14T11:25:16.370Z,21.30
2018-06-14T11:27:43.750Z,21.50
2018-06-14T11:30:11.133Z,22.20
2018-06-14T11:32:38.497Z,22.80
2018-06-14T11:35:06.515Z,23.40
2018-06-14T11:37:33.901Z,23.60
2018-06-14T11:40:01.278Z,23.70
2018-06-14T11:42:28.676Z,23.90
2018-06-14T11:44:56.078Z,24.20
2018-06-14T11:47:24.110Z,24.50
2018-06-14T11:49:52.362Z,24.80
2018-06-14T11:52:19.750Z,24.90
2018-06-14T11:57:14.290Z,25.40
2018-06-14T11:59:41.661Z,25.10
2018-06-14T12:02:09.114Z,24.90
2018-06-14T12:04:37.144Z,24.60
2018-06-14T12:07:04.533Z,24.60
2018-06-14T12:09:32.562Z,24.90
2018-06-14T12:11:59.933Z,24.30
2018-06-14T12:14:27.313Z,23.30
2018-06-14T12:16:54.694Z,22.80
2018-06-14T12:19:22.069Z,22.60
2018-06-14T12:21:49.433Z,22.30
2018-06-14T12:24:16.807Z,22.30
2018-06-14T12:29:11.328Z,22.10
2018-06-14T12:31:38.735Z,21.60
2018-06-14T12:34:06.096Z,21.50
2018-06-14T12:36:33.475Z,21.70
2018-06-14T12:39:00.854Z,22.10
2018-06-14T12:41:28.868Z,22.60
2018-06-14T12:43:56.242Z,23.00
2018-06-14T12:48:51.430Z,23.10
2018-06-14T12:53:46.085Z,22.30
2018-06-14T12:56:14.115Z,21.70
2018-06-14T13:01:09.321Z,21.10
2018-06-14T13:03:36.706Z,20.90
2018-06-14T13:06:04.900Z,20.70
2018-06-14T13:08:32.273Z,20.50
2018-06-14T13:10:59.794Z,20.50
2018-06-14T13:13:27.186Z,20.60
2018-06-14T13:15:54.590Z,20.60
2018-06-14T13:18:21.904Z,20.40
2018-06-14T13:20:49.298Z,20.40
2018-06-14T13:23:17.326Z,20.70
2018-06-14T13:25:44.690Z,21.50
2018-06-14T13:30:39.902Z,23.60
2018-06-14T13:33:07.954Z,24.40
2018-06-14T13:35:35.469Z,24.60
2018-06-14T13:38:02.838Z,24.30
2018-06-14T13:40:30.230Z,24.40
2018-06-14T13:42:57.588Z,24.70
2018-06-14T13:45:24.966Z,24.80
2018-06-14T13:47:52.330Z,24.60
2018-06-14T13:50:19.706Z,24.20
2018-06-14T13:52:47.058Z,23.70
2018-06-14T13:57:42.243Z,24.10
2018-06-14T14:00:09.619Z,23.90
2018-06-14T14:02:36.996Z,23.80
2018-06-14T14:05:04.372Z,23.80
2018-06-14T14:12:27.615Z,23.00
2018-06-14T14:14:55.355Z,22.90
2018-06-14T14:17:23.411Z,23.30
2018-06-14T14:19:51.457Z,23.50
2018-06-14T14:22:19.495Z,23.60
2018-06-14T14:24:46.873Z,24.00
2018-06-14T14:29:42.082Z,24.30
2018-06-14T14:32:10.118Z,24.60
2018-06-14T14:37:05.444Z,25.10
2018-06-14T14:39:33.390Z,24.40
2018-06-14T14:42:00.758Z,24.40
2018-06-14T14:44:28.138Z,23.50
2018-06-14T14:46:55.510Z,23.30
2018-06-14T14:49:22.920Z,22.90
2018-06-14T14:51:50.947Z,23.30
2018-06-14T14:54:18.309Z,24.00
2018-06-14T14:59:14.199Z,24.40
2018-06-14T15:01:42.237Z,24.40
2018-06-14T15:04:10.281Z,24.40
2018-06-14T15:06:38.369Z,24.30
2018-06-14T15:09:06.511Z,24.70
2018-06-14T15:11:34.526Z,24.90
2018-06-14T15:14:01.919Z,24.60
2018-06-14T15:16:29.955Z,24.60
2018-06-14T15:18:57.978Z,24.60
2018-06-14T15:21:26.026Z,24.80
2018-06-14T15:23:54.059Z,24.90
2018-06-14T15:26:22.075Z,24.60
2018-06-14T15:28:50.151Z,24.70
2018-06-14T15:31:18.190Z,24.80
2018-06-14T15:33:46.235Z,24.90
2018-06-14T15:36:13.622Z,25.20
2018-06-14T15:38:41.669Z,24.90
2018-06-14T15:41:09.695Z,24.30
2018-06-14T15:43:37.730Z,24.40
2018-06-14T15:46:05.751Z,24.60
2018-06-14T15:48:33.129Z,24.80
2018-06-14T15:51:00.514Z,25.10
2018-06-14T15:53:27.908Z,25.50
2018-06-14T15:56:17.770Z,25.90
2018-06-14T15:58:46.203Z,24.60
2018-06-14T16:01:14.223Z,24.50
2018-06-14T16:03:42.267Z,25.10
2018-06-14T16:06:10.298Z,24.50
2018-06-14T16:08:38.317Z,24.00
2018-06-14T16:11:06.346Z,23.80
2018-06-14T16:13:33.724Z,24.00
2018-06-14T16:16:01.090Z,24.50
2018-06-14T16:18:28.723Z,24.80
2018-06-14T16:23:23.254Z,25.10
2018-06-14T16:25:50.625Z,25.20
2018-06-14T16:28:18.026Z,25.50
2018-06-14T16:30:45.402Z,25.10
2018-06-14T16:33:13.430Z,24.50
2018-06-14T16:35:41.487Z,24.60
2018-06-14T16:38:09.539Z,24.50
2018-06-14T16:40:37.626Z,24.40
2018-06-14T16:43:05.750Z,24.20
2018-06-14T16:45:33.771Z,24.00
2018-06-14T16:48:01.795Z,23.90
2018-06-14T16:50:29.838Z,24.20
2018-06-14T16:52:57.873Z,24.40
2018-06-14T16:55:25.934Z,24.40
2018-06-14T16:57:53.978Z,24.40
2018-06-14T17:00:22.020Z,24.60
2018-06-14T17:02:50.030Z,24.00
2018-06-14T17:05:18.117Z,23.60
2018-06-14T17:07:46.091Z,23.10
2018-06-14T17:10:13.451Z,22.60
2018-06-14T17:12:40.855Z,22.50
2018-06-14T17:15:08.229Z,22.30
2018-06-14T17:17:35.606Z,22.20
2018-06-14T17:20:03.643Z,22.00
2018-06-14T17:22:31.659Z,22.10
2018-06-14T17:24:59.678Z,22.00
2018-06-14T17:27:27.702Z,21.90
2018-06-14T17:29:55.726Z,21.90
2018-06-14T17:32:23.113Z,21.80
2018-06-14T17:34:50.521Z,21.80
2018-06-14T17:37:17.918Z,21.70
2018-06-14T17:42:12.430Z,21.40
2018-06-14T17:44:39.789Z,21.30
2018-06-14T17:47:07.185Z,21.20
2018-06-14T17:49:34.598Z,21.10
2018-06-14T17:54:29.122Z,21.20
2018-06-14T17:56:56.568Z,21.20
2018-06-14T18:01:51.710Z,20.80
2018-06-14T18:06:46.963Z,20.60
2018-06-14T18:09:14.975Z,20.50
2018-06-14T18:11:43.717Z,20.40
2018-06-14T18:14:11.743Z,20.30
2018-06-14T18:16:39.766Z,20.20
2018-06-14T18:19:07.815Z,20.10
2018-06-14T18:21:35.907Z,20.00
2018-06-14T18:24:03.947Z,19.90
2018-06-14T18:26:31.969Z,19.80
2018-06-14T18:29:00.004Z,19.70
2018-06-14T18:31:28.015Z,19.60
2018-06-14T18:33:56.055Z,19.50
2018-06-14T18:36:24.082Z,19.50
2018-06-14T18:38:52.130Z,19.30
2018-06-14T18:43:47.986Z,19.10
2018-06-14T18:46:16.003Z,18.90
2018-06-14T18:51:11.862Z,18.80
2018-06-14T18:53:39.914Z,18.80
2018-06-14T18:56:07.935Z,18.70
2018-06-14T18:58:35.959Z,18.60
2018-06-14T19:01:03.999Z,18.50
2018-06-14T19:03:32.011Z,18.50
2018-06-14T19:06:00.055Z,18.40
2018-06-14T19:08:28.371Z,18.30
2018-06-14T19:10:56.398Z,18.30
2018-06-14T19:13:24.418Z,18.20
2018-06-14T19:18:20.359Z,18.20
2018-06-14T19:20:48.535Z,18.10
2018-06-14T19:23:16.563Z,18.00
2018-06-14T19:25:44.583Z,17.90
2018-06-14T19:28:12.614Z,17.80
2018-06-14T19:30:40.651Z,17.80
2018-06-14T19:33:08.826Z,17.80
2018-06-14T19:35:36.863Z,17.70
2018-06-14T19:38:04.899Z,17.70
2018-06-14T19:40:32.927Z,17.70
2018-06-14T19:45:28.811Z,17.50
2018-06-14T19:47:56.874Z,17.50
2018-06-14T19:50:24.914Z,17.40
2018-06-14T19:52:52.964Z,17.40
2018-06-14T19:55:21.002Z,17.40
2018-06-14T19:57:49.049Z,17.40
2018-06-14T20:00:17.093Z,17.40
2018-06-14T20:05:13.004Z,17.30
2018-06-14T20:07:41.030Z,17.30
2018-06-14T20:12:36.926Z,17.30
2018-06-14T20:15:05.203Z,17.30
2018-06-14T20:20:01.968Z,17.30
2018-06-14T20:22:30.052Z,17.20
2018-06-14T20:24:58.094Z,17.20
2018-06-14T20:27:26.130Z,17.20
2018-06-14T20:29:54.179Z,17.10
2018-06-14T20:32:22.216Z,17.10
2018-06-14T20:37:18.082Z,16.90
2018-06-14T20:39:46.113Z,16.90
2018-06-14T20:42:14.180Z,16.80
2018-06-14T20:44:42.230Z,16.80
2018-06-14T20:47:10.360Z,16.70
2018-06-14T20:49:38.430Z,16.60
2018-06-14T20:52:06.499Z,16.60
2018-06-14T20:54:34.543Z,16.60
2018-06-14T20:57:02.554Z,16.60
2018-06-14T21:01:58.418Z,16.60
2018-06-14T21:04:26.486Z,16.60
2018-06-14T21:06:54.515Z,16.60
2018-06-14T21:09:22.543Z,16.60
2018-06-14T21:11:50.602Z,16.60
2018-06-14T21:16:46.443Z,16.50
2018-06-14T21:19:14.506Z,16.50
2018-06-14T21:21:42.551Z,16.40
2018-06-14T21:24:10.602Z,16.40
2018-06-14T21:26:38.648Z,16.30
2018-06-14T21:29:06.686Z,16.30
2018-06-14T21:31:34.747Z,16.40
2018-06-14T21:34:02.778Z,16.30
2018-06-14T21:36:30.807Z,16.30
2018-06-14T21:38:58.832Z,16.20
2018-06-14T21:41:26.868Z,16.20
2018-06-14T21:43:54.931Z,16.10
2018-06-14T21:46:22.986Z,16.10
2018-06-14T21:51:18.844Z,16.10
2018-06-14T21:53:46.883Z,16.10
2018-06-14T21:56:14.920Z,16.00
2018-06-14T21:58:42.966Z,16.00
2018-06-14T22:01:11.467Z,16.00
2018-06-14T22:03:44.999Z,15.80
2018-06-14T22:06:13.078Z,15.70
2018-06-14T22:08:41.106Z,15.70
2018-06-14T22:13:36.333Z,15.70
2018-06-14T22:16:03.730Z,15.60
2018-06-14T22:18:31.109Z,15.50
2018-06-14T22:20:58.494Z,15.50
2018-06-14T22:23:26.540Z,15.60
2018-06-14T22:25:54.587Z,15.70
2018-06-14T22:28:22.627Z,15.60
2018-06-14T22:30:50.666Z,15.60
2018-06-14T22:33:30.252Z,15.50
2018-06-14T22:35:58.276Z,15.60
2018-06-14T22:38:26.314Z,15.60
2018-06-14T22:40:54.346Z,15.50
2018-06-14T22:43:22.403Z,15.50
2018-06-14T22:48:18.238Z,15.40
2018-06-14T22:50:57.895Z,15.50
2018-06-14T22:53:25.946Z,15.40
2018-06-14T22:55:53.967Z,15.40
2018-06-14T22:58:22.023Z,15.40
2018-06-14T23:02:04.450Z,15.50
2018-06-14T23:04:32.513Z,15.50
2018-06-14T23:07:00.542Z,15.50
2018-06-14T23:10:42.518Z,15.50
2018-06-14T23:13:11.915Z,15.50
2018-06-14T23:15:39.961Z,15.50
2018-06-14T23:18:07.994Z,15.50
2018-06-14T23:20:36.491Z,15.50
2018-06-14T23:23:05.262Z,15.40
2018-06-14T23:25:33.731Z,15.30
2018-06-14T23:28:01.898Z,15.30
2018-06-14T23:30:29.279Z,15.30
2018-06-14T23:32:57.304Z,15.40
2018-06-14T23:35:25.329Z,15.30
2018-06-14T23:37:53.378Z,15.30
2018-06-14T23:40:21.411Z,15.30
2018-06-14T23:42:49.464Z,15.20
2018-06-14T23:45:16.821Z,15.20
2018-06-14T23:47:44.834Z,15.10
2018-06-14T23:50:12.862Z,15.00
2018-06-14T23:52:40.870Z,14.90
2018-06-14T23:57:36.718Z,14.90
